createdAt,value
2022-08-02T00:00:50.190Z,30.11
2022-08-02T00:03:25.187Z,30.03
2022-08-02T00:05:54.084Z,30.21
2022-08-02T00:08:22.889Z,29.99
2022-08-02T00:10:51.658Z,30.10
2022-08-02T00:13:20.148Z,30.23
2022-08-02T00:15:48.547Z,30.30
2022-08-02T00:18:17.296Z,30.33
2022-08-02T00:20:45.706Z,30.26
2022-08-02T00:23:14.267Z,30.23
2022-08-02T00:25:54.974Z,30.03
2022-08-02T00:28:27.894Z,30.14
2022-08-02T00:30:58.518Z,30.47
2022-08-02T00:34:27.048Z,30.62
2022-08-02T00:36:16.371Z,30.75
2022-08-02T00:38:44.768Z,30.80
2022-08-02T00:41:16.858Z,30.64
2022-08-02T00:43:46.848Z,30.58
2022-08-02T00:46:16.608Z,30.57
2022-08-02T00:48:45.114Z,30.61
2022-08-02T00:51:14.365Z,31.00
2022-08-02T00:53:43.283Z,31.22
2022-08-02T00:56:11.776Z,31.34
2022-08-02T00:58:40.316Z,31.64
2022-08-02T01:01:08.644Z,31.67
2022-08-02T01:03:37.132Z,30.94
2022-08-02T01:06:13.373Z,31.51
2022-08-02T01:08:41.975Z,31.67
2022-08-02T01:11:13.261Z,31.31
2022-08-02T01:13:41.594Z,31.67
2022-08-02T01:16:15.395Z,32.08
2022-08-02T01:18:47.723Z,32.37
2022-08-02T01:21:41.263Z,32.19
2022-08-02T01:24:26.725Z,32.03
2022-08-02T01:27:10.975Z,32.29
2022-08-02T01:29:42.853Z,32.15
2022-08-02T01:32:18.684Z,32.32
2022-08-02T01:34:57.343Z,32.09
2022-08-02T01:37:43.121Z,32.40
2022-08-02T01:40:14.784Z,32.17
2022-08-02T01:42:48.547Z,32.22
2022-08-02T01:45:19.156Z,32.21
2022-08-02T01:47:49.599Z,32.63
2022-08-02T01:50:24.206Z,32.63
2022-08-02T01:52:57.518Z,32.77
2022-08-02T01:55:35.167Z,32.31
2022-08-02T01:58:25.305Z,32.56
2022-08-02T02:00:57.488Z,32.20
2022-08-02T02:03:28.084Z,32.47
2022-08-02T02:05:58.195Z,32.05
2022-08-02T02:08:33.159Z,32.10
2022-08-02T02:12:11.002Z,32.23
2022-08-02T02:13:53.568Z,32.36
2022-08-02T02:16:23.387Z,32.36
2022-08-02T02:18:53.278Z,32.74
2022-08-02T02:21:21.649Z,32.75
2022-08-02T02:23:50.963Z,32.91
2022-08-02T02:26:29.780Z,33.08
2022-08-02T02:29:03.328Z,33.36
2022-08-02T02:31:38.737Z,33.99
2022-08-02T02:34:13.927Z,34.24
2022-08-02T02:36:50.111Z,34.21
2022-08-02T02:39:22.640Z,34.26
2022-08-02T02:41:53.720Z,34.97
2022-08-02T02:44:23.416Z,35.21
2022-08-02T02:46:54.635Z,35.40
2022-08-02T02:49:24.817Z,35.04
2022-08-02T02:51:54.377Z,35.13
2022-08-02T02:54:30.265Z,35.44
2022-08-02T02:57:06.269Z,35.57
2022-08-02T02:59:35.491Z,35.36
2022-08-02T03:02:05.688Z,35.35
2022-08-02T03:04:56.721Z,35.57
2022-08-02T03:07:26.672Z,35.92
2022-08-02T03:09:55.450Z,35.53
2022-08-02T03:12:30.879Z,36.06
2022-08-02T03:15:02.605Z,35.51
2022-08-02T03:17:42.263Z,35.51
2022-08-02T03:20:22.916Z,35.83
2022-08-02T03:22:51.809Z,35.33
2022-08-02T03:25:20.484Z,35.30
2022-08-02T03:27:48.959Z,35.22
2022-08-02T03:30:17.542Z,35.44
2022-08-02T03:32:48.031Z,35.05
2022-08-02T03:35:23.844Z,35.27
2022-08-02T03:37:54.786Z,34.68
2022-08-02T03:40:24.323Z,34.88
2022-08-02T03:42:53.903Z,34.85
2022-08-02T03:45:22.963Z,34.75
2022-08-02T03:47:52.215Z,34.78
2022-08-02T03:50:23.234Z,34.01
2022-08-02T03:52:52.433Z,34.42
2022-08-02T03:55:20.885Z,34.25
2022-08-02T03:57:49.292Z,34.31
2022-08-02T04:00:20.367Z,34.26
2022-08-02T04:02:49.354Z,34.21
2022-08-02T04:05:18.574Z,34.11
2022-08-02T04:08:33.472Z,33.90
2022-08-02T04:10:56.692Z,33.88
2022-08-02T04:13:31.822Z,34.08
2022-08-02T04:16:18.355Z,34.28
2022-08-02T04:18:54.944Z,33.67
2022-08-02T04:21:26.413Z,33.93
2022-08-02T04:24:18.666Z,33.51
2022-08-02T04:26:48.982Z,33.39
2022-08-02T04:29:19.714Z,34.05
2022-08-02T04:31:48.843Z,34.18
2022-08-02T04:34:17.944Z,34.75
2022-08-02T04:36:47.555Z,35.48
2022-08-02T04:39:16.074Z,34.95
2022-08-02T04:41:46.450Z,34.29
2022-08-02T04:44:15.192Z,34.71
2022-08-02T04:46:44.524Z,34.18
2022-08-02T04:49:13.274Z,34.34
2022-08-02T04:51:43.914Z,34.48
2022-08-02T04:54:12.568Z,34.60
2022-08-02T04:56:41.492Z,34.51
2022-08-02T04:59:10.212Z,34.10
2022-08-02T05:01:39.733Z,34.15
2022-08-02T05:04:08.261Z,34.18
2022-08-02T05:06:36.865Z,34.13
2022-08-02T05:09:05.235Z,34.00
2022-08-02T05:11:35.917Z,34.69
2022-08-02T05:14:06.199Z,35.55
2022-08-02T05:16:34.685Z,35.66
2022-08-02T05:19:03.541Z,35.33
2022-08-02T05:21:32.191Z,35.94
2022-08-02T05:24:00.658Z,35.99
2022-08-02T05:26:29.008Z,36.37
2022-08-02T05:28:57.681Z,36.35
2022-08-02T05:31:26.029Z,37.22
2022-08-02T05:33:54.580Z,37.49
2022-08-02T05:36:23.618Z,36.88
2022-08-02T05:38:53.138Z,37.40
2022-08-02T05:41:28.517Z,36.72
2022-08-02T05:43:56.958Z,36.73
2022-08-02T05:46:25.399Z,36.39
2022-08-02T05:48:54.232Z,37.05
2022-08-02T05:51:29.838Z,36.61
2022-08-02T05:54:39.597Z,37.97
2022-08-02T05:57:43.217Z,39.69
2022-08-02T06:00:14.620Z,39.82
2022-08-02T06:02:43.902Z,40.07
2022-08-02T06:05:15.838Z,40.63
2022-08-02T06:07:45.841Z,42.18
2022-08-02T06:10:16.339Z,42.67
2022-08-02T06:12:55.376Z,42.13
2022-08-02T06:15:24.039Z,41.62
2022-08-02T06:17:52.948Z,43.24
2022-08-02T06:20:21.654Z,43.19
2022-08-02T06:22:50.877Z,43.05
2022-08-02T06:25:50.098Z,42.30
2022-08-02T06:28:11.323Z,42.88
2022-08-02T06:30:41.076Z,42.48
2022-08-02T06:33:09.755Z,42.35
2022-08-02T06:35:56.968Z,42.29
2022-08-02T06:38:31.231Z,43.28
2022-08-02T06:41:09.076Z,43.67
2022-08-02T06:43:56.019Z,43.63
2022-08-02T06:46:57.107Z,44.54
2022-08-02T06:49:13.186Z,44.71
2022-08-02T06:51:41.689Z,45.49
2022-08-02T06:54:10.158Z,44.43
2022-08-02T06:56:38.765Z,44.41
2022-08-02T06:59:07.257Z,44.42
2022-08-02T07:01:38.829Z,44.47
2022-08-02T07:04:08.802Z,44.94
2022-08-02T07:06:37.228Z,44.49
2022-08-02T07:09:21.988Z,45.23
2022-08-02T07:11:50.998Z,45.47
2022-08-02T07:14:19.406Z,44.22
2022-08-02T07:16:47.958Z,43.20
2022-08-02T07:19:16.597Z,42.91
2022-08-02T07:21:59.403Z,43.57
2022-08-02T07:24:33.768Z,43.61
2022-08-02T07:27:11.340Z,42.87
2022-08-02T07:29:46.340Z,43.09
2022-08-02T07:32:20.899Z,44.86
2022-08-02T07:34:52.950Z,44.89
2022-08-02T07:37:53.550Z,45.68
2022-08-02T07:40:20.196Z,45.81
2022-08-02T07:42:57.916Z,46.42
2022-08-02T07:45:29.257Z,45.82
2022-08-02T07:47:57.621Z,46.50
2022-08-02T07:50:26.080Z,46.26
2022-08-02T07:52:57.585Z,45.93
2022-08-02T07:55:40.011Z,46.16
2022-08-02T07:58:12.945Z,46.80
2022-08-02T08:00:43.893Z,48.28
2022-08-02T08:03:12.962Z,47.43
2022-08-02T08:05:41.490Z,45.83
2022-08-02T08:08:15.245Z,46.61
2022-08-02T08:10:46.998Z,46.45
2022-08-02T08:13:15.925Z,49.05
2022-08-02T08:15:52.259Z,49.89
2022-08-02T08:18:24.453Z,49.67
2022-08-02T08:20:52.721Z,49.93
2022-08-02T08:23:21.016Z,48.89
2022-08-02T08:25:49.698Z,47.83
2022-08-02T08:28:18.238Z,48.24
2022-08-02T08:30:47.855Z,48.08
2022-08-02T08:33:16.700Z,47.14
2022-08-02T08:35:45.081Z,46.63
2022-08-02T08:38:13.501Z,45.57
2022-08-02T08:40:42.853Z,45.03
2022-08-02T08:43:14.258Z,44.99
2022-08-02T08:45:55.906Z,45.24
2022-08-02T08:48:30.932Z,45.66
2022-08-02T08:51:11.991Z,46.32
2022-08-02T08:53:43.706Z,46.48
2022-08-02T08:56:16.347Z,46.05
2022-08-02T08:58:47.956Z,45.43
2022-08-02T09:01:17.231Z,45.15
2022-08-02T09:03:45.920Z,44.42
2022-08-02T09:06:15.262Z,43.79
2022-08-02T09:08:44.195Z,43.86
2022-08-02T09:11:20.101Z,43.47
2022-08-02T09:13:57.080Z,43.67
2022-08-02T09:16:34.629Z,43.94
2022-08-02T09:19:24.409Z,44.63
2022-08-02T09:22:02.502Z,44.75
2022-08-02T09:24:47.832Z,43.96
2022-08-02T09:27:21.159Z,43.54
2022-08-02T09:30:13.746Z,42.70
2022-08-02T09:32:45.977Z,42.42
2022-08-02T09:35:16.157Z,42.38
2022-08-02T09:37:48.627Z,42.31
2022-08-02T09:40:17.501Z,41.85
2022-08-02T09:42:59.546Z,41.94
2022-08-02T09:45:36.131Z,41.40
2022-08-02T09:48:08.977Z,41.44
2022-08-02T09:50:39.158Z,41.12
2022-08-02T09:53:15.808Z,41.06
2022-08-02T09:55:44.707Z,40.72
2022-08-02T09:58:21.049Z,40.33
2022-08-02T10:00:57.644Z,40.66
2022-08-02T10:03:31.976Z,40.06
2022-08-02T10:06:04.765Z,40.31
2022-08-02T10:08:34.092Z,40.78
2022-08-02T10:11:03.902Z,40.60
2022-08-02T10:13:35.758Z,40.37
2022-08-02T10:16:06.421Z,40.29
2022-08-02T10:18:39.345Z,40.61
2022-08-02T10:21:18.318Z,40.56
2022-08-02T10:23:49.963Z,40.28
2022-08-02T10:26:20.097Z,40.46
2022-08-02T10:28:50.348Z,40.69
2022-08-02T10:31:21.848Z,40.45
2022-08-02T10:33:53.307Z,40.49
2022-08-02T10:36:24.027Z,40.70
2022-08-02T10:38:53.767Z,40.25
2022-08-02T10:41:44.606Z,39.79
2022-08-02T10:44:42.767Z,39.24
2022-08-02T10:47:27.189Z,39.36
2022-08-02T10:50:00.388Z,39.88
2022-08-02T10:52:32.068Z,39.24
2022-08-02T10:55:14.590Z,39.42
2022-08-02T10:58:18.610Z,39.38
2022-08-02T11:00:48.955Z,39.21
2022-08-02T11:03:29.746Z,39.34
2022-08-02T11:06:25.234Z,39.38
2022-08-02T11:09:32.812Z,39.67
2022-08-02T11:12:07.419Z,39.45
2022-08-02T11:14:37.996Z,39.39
2022-08-02T11:17:09.543Z,39.38
2022-08-02T11:20:25.736Z,39.26
2022-08-02T11:23:15.357Z,39.29
2022-08-02T11:26:03.371Z,39.68
2022-08-02T11:28:32.977Z,39.35
2022-08-02T11:31:03.102Z,39.53
2022-08-02T11:33:33.817Z,38.84
2022-08-02T11:36:06.329Z,39.01
2022-08-02T11:39:16.295Z,38.43
2022-08-02T11:41:53.789Z,38.28
2022-08-02T11:44:40.586Z,37.78
2022-08-02T11:47:09.479Z,37.83
2022-08-02T11:49:38.939Z,38.21
2022-08-02T11:52:11.501Z,37.05
2022-08-02T11:54:43.044Z,37.08
2022-08-02T11:57:20.912Z,36.87
2022-08-02T11:59:55.156Z,37.01
2022-08-02T12:02:32.969Z,37.44
2022-08-02T12:05:05.374Z,37.78
2022-08-02T12:07:45.596Z,37.53
2022-08-02T12:10:24.456Z,37.06
2022-08-02T12:12:57.276Z,36.95
2022-08-02T12:15:46.912Z,37.28
2022-08-02T12:18:39.377Z,37.21
2022-08-02T12:21:23.440Z,36.89
2022-08-02T12:24:00.601Z,36.04
2022-08-02T12:26:31.036Z,35.98
2022-08-02T12:28:59.741Z,35.94
2022-08-02T12:32:00.903Z,35.88
2022-08-02T12:34:32.455Z,35.72
2022-08-02T12:37:11.397Z,35.26
2022-08-02T12:39:45.417Z,35.51
2022-08-02T12:42:16.131Z,33.79
2022-08-02T12:44:53.461Z,34.19
2022-08-02T12:47:22.710Z,34.60
2022-08-02T12:50:18.889Z,34.96
2022-08-02T12:52:49.146Z,34.03
2022-08-02T12:55:19.008Z,32.98
2022-08-02T12:58:01.998Z,33.64
2022-08-02T13:00:36.726Z,33.63
2022-08-02T13:03:09.851Z,33.12
2022-08-02T13:05:57.442Z,33.47
2022-08-02T13:08:27.781Z,31.18
2022-08-02T13:10:56.452Z,29.06
2022-08-02T13:13:24.865Z,29.36
2022-08-02T13:15:53.248Z,29.45
2022-08-02T13:18:23.223Z,29.85
2022-08-02T13:20:51.710Z,29.61
2022-08-02T13:23:21.497Z,29.48
2022-08-02T13:25:53.850Z,29.78
2022-08-02T13:28:23.177Z,29.84
2022-08-02T13:30:51.848Z,29.80
2022-08-02T13:33:21.117Z,29.56
2022-08-02T13:35:50.403Z,29.68
2022-08-02T13:38:24.571Z,29.51
2022-08-02T13:41:13.429Z,29.47
2022-08-02T13:43:53.502Z,29.34
2022-08-02T13:46:29.323Z,29.29
2022-08-02T13:48:58.638Z,29.08
2022-08-02T13:51:27.120Z,29.07
2022-08-02T13:53:55.637Z,29.37
2022-08-02T13:56:35.762Z,29.96
2022-08-02T13:59:55.343Z,30.18
2022-08-02T14:01:55.696Z,30.58
2022-08-02T14:04:24.953Z,31.19
2022-08-02T14:06:54.001Z,30.74
2022-08-02T14:09:22.756Z,30.19
2022-08-02T14:11:51.547Z,29.79
2022-08-02T14:14:20.238Z,29.92
2022-08-02T14:16:49.017Z,29.71
2022-08-02T14:19:17.624Z,30.17
2022-08-02T14:21:48.073Z,30.10
2022-08-02T14:24:19.216Z,30.17
2022-08-02T14:26:48.538Z,30.14
2022-08-02T14:29:17.660Z,29.96
2022-08-02T14:31:46.451Z,29.83
2022-08-02T14:34:14.888Z,29.53
2022-08-02T14:36:43.422Z,29.74
2022-08-02T14:39:12.747Z,30.24
2022-08-02T14:42:00.121Z,29.74
2022-08-02T14:44:29.815Z,30.36
2022-08-02T14:46:58.400Z,30.32
2022-08-02T14:49:27.290Z,30.20
2022-08-02T14:51:56.330Z,29.65
2022-08-02T14:54:31.166Z,29.64
2022-08-02T14:57:02.283Z,30.09
2022-08-02T14:59:31.597Z,30.14
2022-08-02T15:02:01.912Z,29.77
2022-08-02T15:04:34.312Z,30.05
2022-08-02T15:07:12.819Z,29.74
2022-08-02T15:09:41.364Z,30.13
2022-08-02T15:12:11.701Z,30.21
2022-08-02T15:14:41.015Z,29.83
2022-08-02T15:17:09.751Z,29.90
2022-08-02T15:19:57.094Z,30.17
2022-08-02T15:22:28.162Z,29.99
2022-08-02T15:24:57.910Z,29.83
2022-08-02T15:27:26.455Z,29.68
2022-08-02T15:30:00.719Z,30.28
2022-08-02T15:32:29.623Z,29.75
2022-08-02T15:34:58.389Z,29.44
2022-08-02T15:37:30.903Z,29.97
2022-08-02T15:40:00.946Z,29.59
2022-08-02T15:42:30.481Z,29.77
2022-08-02T15:44:59.967Z,29.66
2022-08-02T15:47:28.740Z,29.83
2022-08-02T15:49:58.604Z,30.03
2022-08-02T15:52:27.409Z,29.92
2022-08-02T15:54:56.461Z,29.66
2022-08-02T15:57:36.231Z,29.83
2022-08-02T16:00:06.679Z,29.67
2022-08-02T16:02:47.781Z,29.40
2022-08-02T16:05:18.416Z,29.64
2022-08-02T16:07:47.126Z,29.52
2022-08-02T16:10:18.899Z,30.02
2022-08-02T16:12:47.528Z,30.05
2022-08-02T16:15:16.027Z,30.19
2022-08-02T16:17:53.491Z,30.19
2022-08-02T16:20:23.526Z,29.90
2022-08-02T16:22:51.886Z,30.26
2022-08-02T16:25:20.207Z,30.26
2022-08-02T16:28:06.130Z,30.41
2022-08-02T16:30:36.297Z,30.65
2022-08-02T16:33:05.106Z,30.93
2022-08-02T16:35:35.112Z,30.29
2022-08-02T16:38:03.650Z,30.79
2022-08-02T16:40:34.542Z,30.75
2022-08-02T16:43:03.889Z,30.65
2022-08-02T16:45:38.042Z,30.14
2022-08-02T16:48:09.243Z,30.54
2022-08-02T16:50:38.618Z,30.62
2022-08-02T16:53:07.729Z,30.29
2022-08-02T16:55:36.775Z,30.30
2022-08-02T16:58:09.635Z,30.58
2022-08-02T17:00:38.540Z,30.17
2022-08-02T17:03:15.476Z,30.69
2022-08-02T17:05:56.632Z,30.41
2022-08-02T17:08:31.831Z,30.20
2022-08-02T17:11:03.629Z,30.48
2022-08-02T17:13:34.309Z,30.52
2022-08-02T17:16:25.793Z,30.59
2022-08-02T17:18:55.742Z,30.09
2022-08-02T17:21:24.155Z,30.67
2022-08-02T17:24:05.500Z,30.22
2022-08-02T17:26:37.972Z,30.11
2022-08-02T17:29:16.204Z,30.26
2022-08-02T17:32:05.303Z,30.52
2022-08-02T17:34:36.948Z,30.30
2022-08-02T17:37:07.249Z,30.42
2022-08-02T17:39:44.316Z,30.12
2022-08-02T17:42:23.515Z,30.49
2022-08-02T17:45:01.100Z,30.35
2022-08-02T17:48:04.473Z,30.55
2022-08-02T17:50:34.748Z,30.16
2022-08-02T17:53:04.416Z,30.83
2022-08-02T17:55:33.503Z,30.90
2022-08-02T17:58:01.816Z,30.50
2022-08-02T18:00:35.570Z,30.58
2022-08-02T18:03:09.934Z,30.54
2022-08-02T18:05:53.189Z,30.63
2022-08-02T18:08:24.565Z,30.66
2022-08-02T18:10:54.546Z,30.75
2022-08-02T18:13:23.421Z,30.42
2022-08-02T18:15:57.183Z,30.47
2022-08-02T18:18:30.100Z,30.72
2022-08-02T18:21:15.979Z,31.00
2022-08-02T18:23:58.853Z,30.92
2022-08-02T18:26:28.882Z,31.02
2022-08-02T18:28:58.974Z,30.94
2022-08-02T18:31:27.475Z,31.12
2022-08-02T18:34:01.998Z,31.46
2022-08-02T18:36:32.362Z,31.55
2022-08-02T18:39:07.894Z,31.03
2022-08-02T18:41:38.647Z,31.21
2022-08-02T18:44:07.427Z,31.11
2022-08-02T18:46:35.844Z,30.99
2022-08-02T18:49:14.601Z,31.43
2022-08-02T18:51:45.086Z,31.48
2022-08-02T18:54:13.746Z,31.24
2022-08-02T18:56:47.515Z,31.43
2022-08-02T18:59:18.367Z,31.63
2022-08-02T19:01:50.574Z,31.38
2022-08-02T19:04:27.013Z,31.15
2022-08-02T19:07:01.705Z,31.30
2022-08-02T19:09:40.167Z,31.52
2022-08-02T19:14:59.878Z,31.25
2022-08-02T19:17:55.702Z,31.23
2022-08-02T19:20:20.771Z,31.56
2022-08-02T19:22:53.759Z,31.53
2022-08-02T19:25:27.906Z,31.39
2022-08-02T19:27:56.554Z,31.43
2022-08-02T19:30:26.521Z,31.30
2022-08-02T19:32:58.574Z,31.62
2022-08-02T19:35:34.232Z,31.79
2022-08-02T19:38:09.497Z,31.44
2022-08-02T19:40:39.951Z,31.74
2022-08-02T19:44:25.692Z,31.75
2022-08-02T19:45:57.965Z,31.54
2022-08-02T19:48:27.025Z,31.64
2022-08-02T19:51:00.807Z,31.80
2022-08-02T19:53:48.049Z,31.77
2022-08-02T19:56:25.510Z,31.58
2022-08-02T19:58:57.177Z,31.84
2022-08-02T20:04:14.937Z,31.79
2022-08-02T20:06:52.195Z,32.11
2022-08-02T20:09:33.465Z,32.17
2022-08-02T20:12:16.092Z,31.86
2022-08-02T20:14:50.940Z,32.24
2022-08-02T20:17:24.035Z,31.96
2022-08-02T20:19:56.266Z,32.14
2022-08-02T20:22:24.466Z,32.49
2022-08-02T20:24:52.697Z,32.55
2022-08-02T20:27:24.810Z,32.35
2022-08-02T20:29:55.530Z,32.43
2022-08-02T20:32:24.316Z,32.48
2022-08-02T20:34:53.222Z,32.76
2022-08-02T20:37:59.579Z,32.63
2022-08-02T20:40:17.262Z,33.12
2022-08-02T20:42:47.975Z,32.95
2022-08-02T20:45:18.105Z,33.46
2022-08-02T20:47:49.911Z,33.15
2022-08-02T20:50:41.825Z,33.00
2022-08-02T20:53:24.160Z,33.24
2022-08-02T20:55:56.346Z,33.62
2022-08-02T20:58:27.224Z,33.16
2022-08-02T21:01:00.135Z,32.98
2022-08-02T21:03:32.291Z,33.44
2022-08-02T21:06:15.059Z,33.26
2022-08-02T21:08:46.260Z,33.58
2022-08-02T21:11:15.194Z,33.48
2022-08-02T21:16:32.311Z,33.51
2022-08-02T21:19:02.132Z,33.25
2022-08-02T21:21:30.803Z,33.43
2022-08-02T21:24:00.272Z,33.38
2022-08-02T21:26:32.664Z,33.50
2022-08-02T21:29:03.927Z,33.56
2022-08-02T21:31:36.525Z,33.81
2022-08-02T21:34:21.959Z,33.71
2022-08-02T21:36:54.925Z,33.97
2022-08-02T21:39:23.466Z,34.15
2022-08-02T21:41:51.748Z,33.86
2022-08-02T21:44:22.384Z,34.08
2022-08-02T21:46:53.136Z,33.64
2022-08-02T21:49:27.424Z,33.79
2022-08-02T21:52:09.951Z,34.10
2022-08-02T21:54:40.503Z,33.97
2022-08-02T21:57:15.462Z,34.16
2022-08-02T21:59:52.716Z,34.07
2022-08-02T22:02:30.730Z,34.27
2022-08-02T22:05:02.660Z,34.32
2022-08-02T22:07:38.220Z,34.59
2022-08-02T22:10:09.488Z,34.46
2022-08-02T22:12:37.785Z,34.64
2022-08-02T22:15:10.548Z,34.96
2022-08-02T22:17:53.293Z,36.54
2022-08-02T22:20:29.200Z,36.38
2022-08-02T22:22:58.260Z,36.92
2022-08-02T22:25:36.532Z,37.38
2022-08-02T22:28:36.098Z,37.63
2022-08-02T22:31:00.389Z,38.16
2022-08-02T22:34:00.281Z,37.74
2022-08-02T22:36:31.749Z,37.36
2022-08-02T22:39:01.357Z,37.01
2022-08-02T22:42:05.427Z,37.26
2022-08-02T22:44:18.811Z,37.12
2022-08-02T22:46:50.152Z,37.31
2022-08-02T22:49:38.138Z,37.05
2022-08-02T22:52:07.836Z,37.27
2022-08-02T22:54:36.359Z,38.02
2022-08-02T22:57:06.407Z,38.55
2022-08-02T22:58:59.724Z,31.39
2022-08-02T22:59:02.194Z,33.22
2022-08-02T22:59:06.990Z,31.63
2022-08-02T22:59:36.026Z,37.61
2022-08-02T23:02:09.921Z,37.85
2022-08-02T23:04:38.501Z,37.85
2022-08-02T23:07:06.783Z,38.45
2022-08-02T23:09:35.164Z,38.74
2022-08-02T23:12:04.024Z,37.97
2022-08-02T23:14:32.039Z,38.34
2022-08-02T23:17:18.934Z,39.32
2022-08-02T23:19:53.373Z,38.69
2022-08-02T23:22:29.552Z,39.11
2022-08-02T23:25:01.496Z,39.24
2022-08-02T23:27:31.868Z,40.53
2022-08-02T23:30:00.919Z,39.85
2022-08-02T23:32:29.225Z,39.62
2022-08-02T23:34:58.232Z,39.47
2022-08-02T23:37:26.521Z,39.81
2022-08-02T23:39:54.789Z,39.95
2022-08-02T23:42:25.472Z,40.00
2022-08-02T23:44:54.089Z,40.63
2022-08-02T23:47:22.265Z,40.39
2022-08-02T23:49:50.915Z,40.66
2022-08-02T23:52:19.353Z,40.89
2022-08-02T23:54:47.929Z,40.68
2022-08-02T23:57:20.026Z,40.25
2022-08-02T23:59:51.476Z,39.66
